sensor_id;sensor_type;location;lat;lon;timestamp;temperature;humidity
34766;DHT22;20984;43.508;1.504;2022-09-09T00:02:22;19.70;99.90
34766;DHT22;20984;43.508;1.504;2022-09-09T00:05:19;19.70;99.90
34766;DHT22;20984;43.508;1.504;2022-09-09T00:07:52;19.70;99.90
34766;DHT22;20984;43.508;1.504;2022-09-09T00:10:29;19.70;99.90
34766;DHT22;20984;43.508;1.504;2022-09-09T00:13:05;19.70;99.90
34766;DHT22;20984;43.508;1.504;2022-09-09T00:21:14;19.80;99.90
34766;DHT22;20984;43.508;1.504;2022-09-09T00:24:04;19.90;99.90
34766;DHT22;20984;43.508;1.504;2022-09-09T00:26:45;19.90;99.90
34766;DHT22;20984;43.508;1.504;2022-09-09T00:29:20;19.90;99.90
34766;DHT22;20984;43.508;1.504;2022-09-09T00:31:49;19.90;99.90
34766;DHT22;20984;43.508;1.504;2022-09-09T00:34:23;19.90;99.90
34766;DHT22;20984;43.508;1.504;2022-09-09T00:36:53;19.90;99.90
34766;DHT22;20984;43.508;1.504;2022-09-09T00:39:34;20.00;99.90
34766;DHT22;20984;43.508;1.504;2022-09-09T00:42:16;20.00;99.90
34766;DHT22;20984;43.508;1.504;2022-09-09T00:47:49;19.90;99.90
34766;DHT22;20984;43.508;1.504;2022-09-09T00:53:12;19.90;99.90
34766;DHT22;20984;43.508;1.504;2022-09-09T00:58:13;19.80;99.90
34766;DHT22;20984;43.508;1.504;2022-09-09T01:00:55;19.80;99.90
34766;DHT22;20984;43.508;1.504;2022-09-09T01:03:31;19.80;99.90
34766;DHT22;20984;43.508;1.504;2022-09-09T01:17:28;19.80;99.90
34766;DHT22;20984;43.508;1.504;2022-09-09T01:28:30;19.90;99.90
34766;DHT22;20984;43.508;1.504;2022-09-09T01:30:57;19.90;99.90
34766;DHT22;20984;43.508;1.504;2022-09-09T01:33:24;19.90;99.90
34766;DHT22;20984;43.508;1.504;2022-09-09T01:38:48;19.90;99.90
34766;DHT22;20984;43.508;1.504;2022-09-09T01:41:14;19.90;99.90
34766;DHT22;20984;43.508;1.504;2022-09-09T01:43:40;20.00;99.90
34766;DHT22;20984;43.508;1.504;2022-09-09T01:46:06;20.00;99.90
34766;DHT22;20984;43.508;1.504;2022-09-09T01:48:32;20.00;99.90
34766;DHT22;20984;43.508;1.504;2022-09-09T01:50:58;20.00;99.90
34766;DHT22;20984;43.508;1.504;2022-09-09T01:53:24;20.00;99.90
34766;DHT22;20984;43.508;1.504;2022-09-09T02:07:10;19.90;99.90
34766;DHT22;20984;43.508;1.504;2022-09-09T02:09:41;19.80;99.90
34766;DHT22;20984;43.508;1.504;2022-09-09T02:12:14;19.70;99.90
34766;DHT22;20984;43.508;1.504;2022-09-09T02:14:48;19.70;99.90
34766;DHT22;20984;43.508;1.504;2022-09-09T02:17:22;19.60;99.90
34766;DHT22;20984;43.508;1.504;2022-09-09T02:20:04;19.50;99.90
34766;DHT22;20984;43.508;1.504;2022-09-09T02:22:34;19.50;99.90
34766;DHT22;20984;43.508;1.504;2022-09-09T02:25:02;19.50;99.90
34766;DHT22;20984;43.508;1.504;2022-09-09T02:27:30;19.50;99.90
34766;DHT22;20984;43.508;1.504;2022-09-09T02:29:57;19.50;99.90
34766;DHT22;20984;43.508;1.504;2022-09-09T02:32:26;19.50;99.90
34766;DHT22;20984;43.508;1.504;2022-09-09T02:34:59;19.60;99.90
34766;DHT22;20984;43.508;1.504;2022-09-09T02:37:31;19.50;99.90
34766;DHT22;20984;43.508;1.504;2022-09-09T02:39:59;19.50;99.90
34766;DHT22;20984;43.508;1.504;2022-09-09T02:42:25;19.50;99.90
34766;DHT22;20984;43.508;1.504;2022-09-09T02:44:50;19.50;99.90
34766;DHT22;20984;43.508;1.504;2022-09-09T02:47:39;19.50;99.90
34766;DHT22;20984;43.508;1.504;2022-09-09T02:50:14;19.50;99.90
34766;DHT22;20984;43.508;1.504;2022-09-09T02:58:28;19.40;99.90
34766;DHT22;20984;43.508;1.504;2022-09-09T03:00:54;19.30;99.90
34766;DHT22;20984;43.508;1.504;2022-09-09T03:03:23;19.30;99.90
34766;DHT22;20984;43.508;1.504;2022-09-09T03:05:49;19.30;99.90
34766;DHT22;20984;43.508;1.504;2022-09-09T03:08:16;19.30;99.90
34766;DHT22;20984;43.508;1.504;2022-09-09T03:10:41;19.30;99.90
34766;DHT22;20984;43.508;1.504;2022-09-09T03:13:07;19.30;99.90
34766;DHT22;20984;43.508;1.504;2022-09-09T03:15:34;19.30;99.90
34766;DHT22;20984;43.508;1.504;2022-09-09T03:18:00;19.30;99.90
34766;DHT22;20984;43.508;1.504;2022-09-09T03:20:28;19.30;99.90
34766;DHT22;20984;43.508;1.504;2022-09-09T03:22:55;19.30;99.90
34766;DHT22;20984;43.508;1.504;2022-09-09T03:25:22;19.30;99.90
34766;DHT22;20984;43.508;1.504;2022-09-09T03:27:52;19.30;99.90
34766;DHT22;20984;43.508;1.504;2022-09-09T03:30:24;19.40;99.90
34766;DHT22;20984;43.508;1.504;2022-09-09T03:32:50;19.30;99.90
34766;DHT22;20984;43.508;1.504;2022-09-09T03:35:16;19.30;99.90
34766;DHT22;20984;43.508;1.504;2022-09-09T03:37:42;19.30;99.90
34766;DHT22;20984;43.508;1.504;2022-09-09T03:40:08;19.30;99.90
34766;DHT22;20984;43.508;1.504;2022-09-09T03:42:38;19.30;99.90
34766;DHT22;20984;43.508;1.504;2022-09-09T03:45:06;19.30;99.90
34766;DHT22;20984;43.508;1.504;2022-09-09T03:47:34;19.30;99.90
34766;DHT22;20984;43.508;1.504;2022-09-09T03:50:00;19.30;99.90
34766;DHT22;20984;43.508;1.504;2022-09-09T03:52:29;19.30;99.90
34766;DHT22;20984;43.508;1.504;2022-09-09T03:54:56;19.30;99.90
34766;DHT22;20984;43.508;1.504;2022-09-09T03:57:22;19.30;99.90
34766;DHT22;20984;43.508;1.504;2022-09-09T03:59:48;19.20;99.90
34766;DHT22;20984;43.508;1.504;2022-09-09T04:02:14;19.20;99.90
34766;DHT22;20984;43.508;1.504;2022-09-09T04:04:40;19.20;99.90
34766;DHT22;20984;43.508;1.504;2022-09-09T04:07:06;19.20;99.90
34766;DHT22;20984;43.508;1.504;2022-09-09T04:09:35;19.20;99.90
34766;DHT22;20984;43.508;1.504;2022-09-09T04:12:01;19.20;99.90
34766;DHT22;20984;43.508;1.504;2022-09-09T04:14:27;19.20;99.90
34766;DHT22;20984;43.508;1.504;2022-09-09T04:16:54;19.30;99.90
34766;DHT22;20984;43.508;1.504;2022-09-09T04:19:21;19.30;99.90
34766;DHT22;20984;43.508;1.504;2022-09-09T04:21:47;19.30;99.90
34766;DHT22;20984;43.508;1.504;2022-09-09T04:24:16;19.30;99.90
34766;DHT22;20984;43.508;1.504;2022-09-09T04:26:43;19.30;99.90
34766;DHT22;20984;43.508;1.504;2022-09-09T04:29:08;19.30;99.90
34766;DHT22;20984;43.508;1.504;2022-09-09T04:31:34;19.30;99.90
34766;DHT22;20984;43.508;1.504;2022-09-09T04:34:00;19.30;99.90
34766;DHT22;20984;43.508;1.504;2022-09-09T04:36:32;19.30;99.90
34766;DHT22;20984;43.508;1.504;2022-09-09T04:38:58;19.30;99.90
34766;DHT22;20984;43.508;1.504;2022-09-09T04:41:24;19.30;99.90
34766;DHT22;20984;43.508;1.504;2022-09-09T04:43:50;19.20;99.90
34766;DHT22;20984;43.508;1.504;2022-09-09T04:46:17;19.20;99.90
34766;DHT22;20984;43.508;1.504;2022-09-09T04:48:43;19.20;99.90
34766;DHT22;20984;43.508;1.504;2022-09-09T04:51:12;19.10;99.90
34766;DHT22;20984;43.508;1.504;2022-09-09T04:53:38;19.10;99.90
34766;DHT22;20984;43.508;1.504;2022-09-09T04:56:10;19.10;99.90
34766;DHT22;20984;43.508;1.504;2022-09-09T04:58:37;19.00;99.90
34766;DHT22;20984;43.508;1.504;2022-09-09T05:01:15;19.00;99.90
34766;DHT22;20984;43.508;1.504;2022-09-09T05:03:43;19.00;99.90
34766;DHT22;20984;43.508;1.504;2022-09-09T05:06:12;19.00;99.90
34766;DHT22;20984;43.508;1.504;2022-09-09T05:08:41;19.00;99.90
34766;DHT22;20984;43.508;1.504;2022-09-09T05:13:44;19.00;99.90
34766;DHT22;20984;43.508;1.504;2022-09-09T05:16:11;19.00;99.90
34766;DHT22;20984;43.508;1.504;2022-09-09T05:18:41;19.00;99.90
34766;DHT22;20984;43.508;1.504;2022-09-09T05:21:10;19.00;99.90
34766;DHT22;20984;43.508;1.504;2022-09-09T05:23:37;19.00;99.90
34766;DHT22;20984;43.508;1.504;2022-09-09T05:26:04;18.80;99.90
34766;DHT22;20984;43.508;1.504;2022-09-09T05:28:30;18.70;99.90
34766;DHT22;20984;43.508;1.504;2022-09-09T05:31:05;18.50;99.90
34766;DHT22;20984;43.508;1.504;2022-09-09T05:33:34;18.30;99.90
34766;DHT22;20984;43.508;1.504;2022-09-09T05:36:06;18.30;99.90
34766;DHT22;20984;43.508;1.504;2022-09-09T05:38:34;18.20;99.90
34766;DHT22;20984;43.508;1.504;2022-09-09T05:41:01;18.20;99.90
34766;DHT22;20984;43.508;1.504;2022-09-09T05:43:28;18.10;99.90
34766;DHT22;20984;43.508;1.504;2022-09-09T05:46:06;18.00;99.90
34766;DHT22;20984;43.508;1.504;2022-09-09T05:48:38;17.90;99.90
34766;DHT22;20984;43.508;1.504;2022-09-09T05:51:07;17.80;99.90
34766;DHT22;20984;43.508;1.504;2022-09-09T05:53:34;17.80;99.90
34766;DHT22;20984;43.508;1.504;2022-09-09T05:56:01;17.80;99.90
34766;DHT22;20984;43.508;1.504;2022-09-09T05:58:32;17.70;99.90
34766;DHT22;20984;43.508;1.504;2022-09-09T06:01:06;17.80;99.90
34766;DHT22;20984;43.508;1.504;2022-09-09T06:03:34;17.70;99.90
34766;DHT22;20984;43.508;1.504;2022-09-09T06:06:02;17.70;99.90
34766;DHT22;20984;43.508;1.504;2022-09-09T06:08:31;17.80;99.90
34766;DHT22;20984;43.508;1.504;2022-09-09T06:11:04;17.70;99.90
34766;DHT22;20984;43.508;1.504;2022-09-09T06:13:31;17.80;99.90
34766;DHT22;20984;43.508;1.504;2022-09-09T06:15:57;17.80;99.90
34766;DHT22;20984;43.508;1.504;2022-09-09T06:18:24;17.80;99.90
34766;DHT22;20984;43.508;1.504;2022-09-09T06:21:03;17.70;99.90
34766;DHT22;20984;43.508;1.504;2022-09-09T06:23:30;17.80;99.90
34766;DHT22;20984;43.508;1.504;2022-09-09T06:26:08;17.90;99.90
34766;DHT22;20984;43.508;1.504;2022-09-09T06:28:35;17.90;99.90
34766;DHT22;20984;43.508;1.504;2022-09-09T06:31:04;18.00;99.90
34766;DHT22;20984;43.508;1.504;2022-09-09T06:33:34;18.10;99.90
34766;DHT22;20984;43.508;1.504;2022-09-09T06:36:01;18.20;99.90
34766;DHT22;20984;43.508;1.504;2022-09-09T06:38:27;18.30;99.90
34766;DHT22;20984;43.508;1.504;2022-09-09T06:40:54;18.30;99.90
34766;DHT22;20984;43.508;1.504;2022-09-09T06:43:22;18.30;99.90
34766;DHT22;20984;43.508;1.504;2022-09-09T06:46:00;18.20;99.90
34766;DHT22;20984;43.508;1.504;2022-09-09T06:48:27;18.30;99.90
34766;DHT22;20984;43.508;1.504;2022-09-09T06:53:33;18.60;99.90
34766;DHT22;20984;43.508;1.504;2022-09-09T06:56:24;18.70;99.90
34766;DHT22;20984;43.508;1.504;2022-09-09T06:58:50;18.70;99.90
34766;DHT22;20984;43.508;1.504;2022-09-09T07:01:19;18.80;99.90
34766;DHT22;20984;43.508;1.504;2022-09-09T07:03:48;18.80;99.90
34766;DHT22;20984;43.508;1.504;2022-09-09T07:06:21;18.90;99.90
34766;DHT22;20984;43.508;1.504;2022-09-09T07:08:55;18.90;99.90
34766;DHT22;20984;43.508;1.504;2022-09-09T07:11:22;19.00;99.90
34766;DHT22;20984;43.508;1.504;2022-09-09T07:13:48;18.90;99.90
34766;DHT22;20984;43.508;1.504;2022-09-09T07:16:16;18.90;99.90
34766;DHT22;20984;43.508;1.504;2022-09-09T07:18:43;19.00;99.90
34766;DHT22;20984;43.508;1.504;2022-09-09T07:21:10;18.90;99.90
34766;DHT22;20984;43.508;1.504;2022-09-09T07:23:38;18.90;99.90
34766;DHT22;20984;43.508;1.504;2022-09-09T07:26:16;18.90;99.90
34766;DHT22;20984;43.508;1.504;2022-09-09T07:28:42;19.00;99.90
34766;DHT22;20984;43.508;1.504;2022-09-09T07:31:17;19.20;99.90
34766;DHT22;20984;43.508;1.504;2022-09-09T07:33:44;19.20;99.90
34766;DHT22;20984;43.508;1.504;2022-09-09T07:36:14;19.30;99.90
34766;DHT22;20984;43.508;1.504;2022-09-09T07:38:44;19.30;99.90
34766;DHT22;20984;43.508;1.504;2022-09-09T07:41:14;19.20;99.90
34766;DHT22;20984;43.508;1.504;2022-09-09T07:43:45;19.20;99.90
34766;DHT22;20984;43.508;1.504;2022-09-09T07:46:13;19.10;99.90
34766;DHT22;20984;43.508;1.504;2022-09-09T07:48:43;19.00;99.90
34766;DHT22;20984;43.508;1.504;2022-09-09T07:51:14;19.00;99.90
34766;DHT22;20984;43.508;1.504;2022-09-09T07:53:46;19.10;99.90
34766;DHT22;20984;43.508;1.504;2022-09-09T07:56:17;19.10;99.90
34766;DHT22;20984;43.508;1.504;2022-09-09T07:58:45;18.90;99.90
34766;DHT22;20984;43.508;1.504;2022-09-09T08:03:54;19.10;99.90
34766;DHT22;20984;43.508;1.504;2022-09-09T08:06:20;19.10;99.90
34766;DHT22;20984;43.508;1.504;2022-09-09T08:08:50;19.10;99.90
34766;DHT22;20984;43.508;1.504;2022-09-09T08:11:17;19.10;99.90
34766;DHT22;20984;43.508;1.504;2022-09-09T08:13:43;19.00;99.90
34766;DHT22;20984;43.508;1.504;2022-09-09T08:16:16;19.00;99.90
34766;DHT22;20984;43.508;1.504;2022-09-09T08:18:42;18.90;99.90
34766;DHT22;20984;43.508;1.504;2022-09-09T08:21:09;19.00;99.90
34766;DHT22;20984;43.508;1.504;2022-09-09T08:23:39;19.00;99.90
34766;DHT22;20984;43.508;1.504;2022-09-09T08:26:09;19.00;99.90
34766;DHT22;20984;43.508;1.504;2022-09-09T08:28:40;19.00;99.90
34766;DHT22;20984;43.508;1.504;2022-09-09T08:31:11;19.00;99.90
34766;DHT22;20984;43.508;1.504;2022-09-09T08:33:39;19.00;99.90
34766;DHT22;20984;43.508;1.504;2022-09-09T08:36:08;19.00;99.90
34766;DHT22;20984;43.508;1.504;2022-09-09T08:38:34;19.00;99.90
34766;DHT22;20984;43.508;1.504;2022-09-09T08:44:07;18.90;99.90
34766;DHT22;20984;43.508;1.504;2022-09-09T08:46:52;18.90;99.90
34766;DHT22;20984;43.508;1.504;2022-09-09T08:52:28;19.10;99.90
34766;DHT22;20984;43.508;1.504;2022-09-09T08:55:35;19.20;99.90
34766;DHT22;20984;43.508;1.504;2022-09-09T08:58:23;19.20;99.90
34766;DHT22;20984;43.508;1.504;2022-09-09T09:03:42;19.30;99.90
34766;DHT22;20984;43.508;1.504;2022-09-09T09:09:30;19.30;99.90
34766;DHT22;20984;43.508;1.504;2022-09-09T09:12:00;19.20;99.90
34766;DHT22;20984;43.508;1.504;2022-09-09T09:14:29;19.00;99.90
34766;DHT22;20984;43.508;1.504;2022-09-09T09:16:58;18.70;99.90
34766;DHT22;20984;43.508;1.504;2022-09-09T09:19:26;18.60;99.90
34766;DHT22;20984;43.508;1.504;2022-09-09T09:24:56;18.30;99.90
34766;DHT22;20984;43.508;1.504;2022-09-09T09:30:18;18.30;99.90
34766;DHT22;20984;43.508;1.504;2022-09-09T09:32:58;18.30;99.90
34766;DHT22;20984;43.508;1.504;2022-09-09T09:35:26;18.10;99.90
34766;DHT22;20984;43.508;1.504;2022-09-09T09:37:52;17.70;99.90
34766;DHT22;20984;43.508;1.504;2022-09-09T09:40:20;17.30;99.90
34766;DHT22;20984;43.508;1.504;2022-09-09T09:42:55;17.10;99.90
34766;DHT22;20984;43.508;1.504;2022-09-09T09:45:42;16.90;99.90
34766;DHT22;20984;43.508;1.504;2022-09-09T09:48:12;16.70;99.90
34766;DHT22;20984;43.508;1.504;2022-09-09T09:50:58;16.60;99.90
34766;DHT22;20984;43.508;1.504;2022-09-09T09:53:27;16.50;99.90
34766;DHT22;20984;43.508;1.504;2022-09-09T09:55:59;16.40;99.90
34766;DHT22;20984;43.508;1.504;2022-09-09T09:58:31;16.40;99.90
34766;DHT22;20984;43.508;1.504;2022-09-09T10:01:00;16.40;99.90
34766;DHT22;20984;43.508;1.504;2022-09-09T10:03:32;16.40;99.90
34766;DHT22;20984;43.508;1.504;2022-09-09T10:06:03;16.50;99.90
34766;DHT22;20984;43.508;1.504;2022-09-09T10:08:33;16.50;99.90
34766;DHT22;20984;43.508;1.504;2022-09-09T10:14:11;16.60;99.90
34766;DHT22;20984;43.508;1.504;2022-09-09T10:17:09;16.60;99.90
34766;DHT22;20984;43.508;1.504;2022-09-09T10:19:42;16.60;99.90
34766;DHT22;20984;43.508;1.504;2022-09-09T10:25:10;16.60;99.90
34766;DHT22;20984;43.508;1.504;2022-09-09T10:28:35;16.60;99.90
34766;DHT22;20984;43.508;1.504;2022-09-09T10:34:03;16.80;99.90
34766;DHT22;20984;43.508;1.504;2022-09-09T10:36:32;16.90;99.90
34766;DHT22;20984;43.508;1.504;2022-09-09T10:39:04;17.00;99.90
34766;DHT22;20984;43.508;1.504;2022-09-09T10:41:52;16.90;99.90
34766;DHT22;20984;43.508;1.504;2022-09-09T10:50:12;16.70;99.90
34766;DHT22;20984;43.508;1.504;2022-09-09T10:55:33;16.70;99.90
34766;DHT22;20984;43.508;1.504;2022-09-09T10:58:03;16.70;99.90
34766;DHT22;20984;43.508;1.504;2022-09-09T11:00:53;16.60;99.90
34766;DHT22;20984;43.508;1.504;2022-09-09T11:03:26;16.60;99.90
34766;DHT22;20984;43.508;1.504;2022-09-09T11:05:57;16.60;99.90
34766;DHT22;20984;43.508;1.504;2022-09-09T11:08:26;16.80;99.90
34766;DHT22;20984;43.508;1.504;2022-09-09T11:11:25;17.00;99.90
34766;DHT22;20984;43.508;1.504;2022-09-09T11:16:46;17.30;99.90
34766;DHT22;20984;43.508;1.504;2022-09-09T11:19:41;17.50;99.90
34766;DHT22;20984;43.508;1.504;2022-09-09T11:33:25;17.90;99.90
34766;DHT22;20984;43.508;1.504;2022-09-09T11:38:52;18.30;99.90
34766;DHT22;20984;43.508;1.504;2022-09-09T11:41:23;18.30;99.90
34766;DHT22;20984;43.508;1.504;2022-09-09T11:43:52;18.30;99.90
34766;DHT22;20984;43.508;1.504;2022-09-09T11:46:21;18.40;99.90
34766;DHT22;20984;43.508;1.504;2022-09-09T11:49:03;18.50;99.90
34766;DHT22;20984;43.508;1.504;2022-09-09T11:51:31;18.80;99.90
34766;DHT22;20984;43.508;1.504;2022-09-09T11:54:02;19.00;99.90
34766;DHT22;20984;43.508;1.504;2022-09-09T11:56:33;18.90;99.90
34766;DHT22;20984;43.508;1.504;2022-09-09T12:06:51;19.50;99.90
34766;DHT22;20984;43.508;1.504;2022-09-09T12:10:18;19.60;99.90
34766;DHT22;20984;43.508;1.504;2022-09-09T12:17:27;19.70;99.90
34766;DHT22;20984;43.508;1.504;2022-09-09T12:23:18;20.00;99.90
34766;DHT22;20984;43.508;1.504;2022-09-09T12:28:19;20.00;99.90
34766;DHT22;20984;43.508;1.504;2022-09-09T12:31:04;20.00;99.90
34766;DHT22;20984;43.508;1.504;2022-09-09T12:33:36;20.10;99.90
34766;DHT22;20984;43.508;1.504;2022-09-09T12:36:03;20.00;99.90
34766;DHT22;20984;43.508;1.504;2022-09-09T12:38:36;20.40;99.90
34766;DHT22;20984;43.508;1.504;2022-09-09T12:41:05;20.20;99.90
34766;DHT22;20984;43.508;1.504;2022-09-09T12:43:31;20.30;99.90
34766;DHT22;20984;43.508;1.504;2022-09-09T12:46:08;20.50;99.90
34766;DHT22;20984;43.508;1.504;2022-09-09T12:48:41;20.40;99.90
34766;DHT22;20984;43.508;1.504;2022-09-09T12:51:37;20.80;99.90
34766;DHT22;20984;43.508;1.504;2022-09-09T12:54:03;20.90;99.90
34766;DHT22;20984;43.508;1.504;2022-09-09T12:56:31;21.40;99.90
34766;DHT22;20984;43.508;1.504;2022-09-09T12:58:58;21.10;99.90
34766;DHT22;20984;43.508;1.504;2022-09-09T13:01:26;21.20;99.90
34766;DHT22;20984;43.508;1.504;2022-09-09T13:03:53;21.30;99.90
34766;DHT22;20984;43.508;1.504;2022-09-09T13:06:25;21.50;99.90
34766;DHT22;20984;43.508;1.504;2022-09-09T13:08:52;21.50;99.90
34766;DHT22;20984;43.508;1.504;2022-09-09T13:11:24;21.70;99.90
34766;DHT22;20984;43.508;1.504;2022-09-09T13:13:57;21.90;99.90
34766;DHT22;20984;43.508;1.504;2022-09-09T13:16:34;21.70;99.90
34766;DHT22;20984;43.508;1.504;2022-09-09T13:19:18;21.60;99.90
34766;DHT22;20984;43.508;1.504;2022-09-09T13:21:44;21.70;99.90
34766;DHT22;20984;43.508;1.504;2022-09-09T13:24:32;22.00;99.90
34766;DHT22;20984;43.508;1.504;2022-09-09T13:27:04;22.00;99.90
34766;DHT22;20984;43.508;1.504;2022-09-09T13:29:32;22.10;99.90
34766;DHT22;20984;43.508;1.504;2022-09-09T13:32:17;22.40;99.90
34766;DHT22;20984;43.508;1.504;2022-09-09T13:34:56;22.60;99.90
34766;DHT22;20984;43.508;1.504;2022-09-09T13:37:35;22.70;99.90
34766;DHT22;20984;43.508;1.504;2022-09-09T13:40:03;22.60;99.90
34766;DHT22;20984;43.508;1.504;2022-09-09T13:42:32;22.60;99.90
34766;DHT22;20984;43.508;1.504;2022-09-09T13:45:01;22.70;99.90
34766;DHT22;20984;43.508;1.504;2022-09-09T13:47:34;22.90;99.90
34766;DHT22;20984;43.508;1.504;2022-09-09T13:50:19;22.80;99.90
34766;DHT22;20984;43.508;1.504;2022-09-09T13:52:46;22.30;99.90
34766;DHT22;20984;43.508;1.504;2022-09-09T13:55:13;22.40;99.90
34766;DHT22;20984;43.508;1.504;2022-09-09T13:57:38;22.40;99.90
34766;DHT22;20984;43.508;1.504;2022-09-09T14:00:06;22.30;99.90
34766;DHT22;20984;43.508;1.504;2022-09-09T14:02:34;22.20;99.90
34766;DHT22;20984;43.508;1.504;2022-09-09T14:05:00;22.10;99.90
34766;DHT22;20984;43.508;1.504;2022-09-09T14:07:26;22.40;99.90
34766;DHT22;20984;43.508;1.504;2022-09-09T14:09:52;22.40;99.90
34766;DHT22;20984;43.508;1.504;2022-09-09T14:12:18;22.60;99.90
34766;DHT22;20984;43.508;1.504;2022-09-09T14:14:43;22.90;99.90
34766;DHT22;20984;43.508;1.504;2022-09-09T14:17:10;23.00;99.90
34766;DHT22;20984;43.508;1.504;2022-09-09T14:19:36;22.90;99.90
34766;DHT22;20984;43.508;1.504;2022-09-09T14:22:02;22.80;99.90
34766;DHT22;20984;43.508;1.504;2022-09-09T14:24:28;22.60;99.90
34766;DHT22;20984;43.508;1.504;2022-09-09T14:26:54;22.80;99.90
34766;DHT22;20984;43.508;1.504;2022-09-09T14:29:22;23.20;99.90
34766;DHT22;20984;43.508;1.504;2022-09-09T14:31:50;23.60;99.90
34766;DHT22;20984;43.508;1.504;2022-09-09T14:34:16;23.80;99.90
34766;DHT22;20984;43.508;1.504;2022-09-09T14:36:42;23.80;99.90
34766;DHT22;20984;43.508;1.504;2022-09-09T14:39:10;23.90;99.90
34766;DHT22;20984;43.508;1.504;2022-09-09T14:41:36;24.20;99.90
34766;DHT22;20984;43.508;1.504;2022-09-09T14:44:02;24.00;99.90
34766;DHT22;20984;43.508;1.504;2022-09-09T14:46:28;23.70;99.90
34766;DHT22;20984;43.508;1.504;2022-09-09T14:48:54;23.40;99.90
34766;DHT22;20984;43.508;1.504;2022-09-09T14:51:22;23.40;99.90
34766;DHT22;20984;43.508;1.504;2022-09-09T14:53:50;24.00;99.90
34766;DHT22;20984;43.508;1.504;2022-09-09T14:56:18;24.70;99.90
34766;DHT22;20984;43.508;1.504;2022-09-09T14:58:44;25.80;99.90
34766;DHT22;20984;43.508;1.504;2022-09-09T15:01:16;27.10;99.90
34766;DHT22;20984;43.508;1.504;2022-09-09T15:03:44;27.80;99.90
34766;DHT22;20984;43.508;1.504;2022-09-09T15:06:14;27.60;99.90
34766;DHT22;20984;43.508;1.504;2022-09-09T15:08:42;27.70;99.90
34766;DHT22;20984;43.508;1.504;2022-09-09T15:11:09;28.60;99.90
34766;DHT22;20984;43.508;1.504;2022-09-09T15:13:40;29.10;98.40
34766;DHT22;20984;43.508;1.504;2022-09-09T15:16:07;29.60;98.80
34766;DHT22;20984;43.508;1.504;2022-09-09T15:18:34;30.70;95.50
34766;DHT22;20984;43.508;1.504;2022-09-09T15:21:02;31.90;92.40
34766;DHT22;20984;43.508;1.504;2022-09-09T15:23:35;31.80;91.90
34766;DHT22;20984;43.508;1.504;2022-09-09T15:26:01;32.20;91.60
34766;DHT22;20984;43.508;1.504;2022-09-09T15:28:28;32.60;84.80
34766;DHT22;20984;43.508;1.504;2022-09-09T15:30:54;32.70;85.50
34766;DHT22;20984;43.508;1.504;2022-09-09T15:33:22;32.20;81.80
34766;DHT22;20984;43.508;1.504;2022-09-09T15:35:48;31.90;85.20
34766;DHT22;20984;43.508;1.504;2022-09-09T15:38:15;31.10;84.60
34766;DHT22;20984;43.508;1.504;2022-09-09T15:40:43;31.30;82.30
34766;DHT22;20984;43.508;1.504;2022-09-09T15:43:11;31.00;84.30
34766;DHT22;20984;43.508;1.504;2022-09-09T15:45:39;30.30;86.20
34766;DHT22;20984;43.508;1.504;2022-09-09T15:48:05;30.40;86.60
34766;DHT22;20984;43.508;1.504;2022-09-09T15:50:31;29.80;86.40
34766;DHT22;20984;43.508;1.504;2022-09-09T15:52:58;29.30;88.00
34766;DHT22;20984;43.508;1.504;2022-09-09T15:55:24;28.60;89.60
34766;DHT22;20984;43.508;1.504;2022-09-09T15:57:51;27.90;90.60
34766;DHT22;20984;43.508;1.504;2022-09-09T16:00:18;27.30;92.00
34766;DHT22;20984;43.508;1.504;2022-09-09T16:02:46;26.30;93.10
34766;DHT22;20984;43.508;1.504;2022-09-09T16:05:12;25.50;95.70
34766;DHT22;20984;43.508;1.504;2022-09-09T16:07:38;24.80;97.40
34766;DHT22;20984;43.508;1.504;2022-09-09T16:10:04;24.50;98.40
34766;DHT22;20984;43.508;1.504;2022-09-09T16:12:33;24.20;99.10
34766;DHT22;20984;43.508;1.504;2022-09-09T16:15:02;23.80;99.90
34766;DHT22;20984;43.508;1.504;2022-09-09T16:17:30;23.60;99.90
34766;DHT22;20984;43.508;1.504;2022-09-09T16:20:03;23.60;99.90
34766;DHT22;20984;43.508;1.504;2022-09-09T16:22:30;23.70;99.90
34766;DHT22;20984;43.508;1.504;2022-09-09T16:24:56;23.70;99.90
34766;DHT22;20984;43.508;1.504;2022-09-09T16:27:22;23.90;99.90
34766;DHT22;20984;43.508;1.504;2022-09-09T16:29:48;24.20;99.90
34766;DHT22;20984;43.508;1.504;2022-09-09T16:32:14;24.50;99.90
34766;DHT22;20984;43.508;1.504;2022-09-09T16:34:40;24.40;99.90
34766;DHT22;20984;43.508;1.504;2022-09-09T16:37:08;24.20;99.90
34766;DHT22;20984;43.508;1.504;2022-09-09T16:39:34;23.80;99.90
34766;DHT22;20984;43.508;1.504;2022-09-09T16:42:01;23.50;99.90
34766;DHT22;20984;43.508;1.504;2022-09-09T16:44:28;23.40;99.90
34766;DHT22;20984;43.508;1.504;2022-09-09T16:46:54;23.30;99.90
34766;DHT22;20984;43.508;1.504;2022-09-09T16:49:20;23.30;99.90
34766;DHT22;20984;43.508;1.504;2022-09-09T16:51:48;23.10;99.90
34766;DHT22;20984;43.508;1.504;2022-09-09T16:54:16;23.00;99.90
34766;DHT22;20984;43.508;1.504;2022-09-09T16:56:44;22.90;99.90
34766;DHT22;20984;43.508;1.504;2022-09-09T16:59:14;22.90;99.90
34766;DHT22;20984;43.508;1.504;2022-09-09T17:01:42;22.80;99.90
34766;DHT22;20984;43.508;1.504;2022-09-09T17:04:19;22.70;99.90
34766;DHT22;20984;43.508;1.504;2022-09-09T17:06:50;22.60;99.90
34766;DHT22;20984;43.508;1.504;2022-09-09T17:09:17;22.60;99.90
34766;DHT22;20984;43.508;1.504;2022-09-09T17:11:44;22.60;99.90
34766;DHT22;20984;43.508;1.504;2022-09-09T17:14:14;22.50;99.90
34766;DHT22;20984;43.508;1.504;2022-09-09T17:16:40;22.50;99.90
34766;DHT22;20984;43.508;1.504;2022-09-09T17:19:06;22.40;99.90
34766;DHT22;20984;43.508;1.504;2022-09-09T17:21:35;22.30;99.90
34766;DHT22;20984;43.508;1.504;2022-09-09T17:24:01;22.30;99.90
34766;DHT22;20984;43.508;1.504;2022-09-09T17:26:30;22.20;99.90
34766;DHT22;20984;43.508;1.504;2022-09-09T17:28:57;22.20;99.90
34766;DHT22;20984;43.508;1.504;2022-09-09T17:31:27;22.10;99.90
34766;DHT22;20984;43.508;1.504;2022-09-09T17:33:53;22.00;99.90
34766;DHT22;20984;43.508;1.504;2022-09-09T17:38:47;21.90;99.90
34766;DHT22;20984;43.508;1.504;2022-09-09T17:41:20;21.80;99.90
34766;DHT22;20984;43.508;1.504;2022-09-09T17:43:46;21.70;99.90
34766;DHT22;20984;43.508;1.504;2022-09-09T17:46:17;21.40;99.90
34766;DHT22;20984;43.508;1.504;2022-09-09T17:48:48;21.20;99.90
34766;DHT22;20984;43.508;1.504;2022-09-09T17:51:17;21.00;99.90
34766;DHT22;20984;43.508;1.504;2022-09-09T17:53:49;20.80;99.90
34766;DHT22;20984;43.508;1.504;2022-09-09T17:56:17;20.60;99.90
34766;DHT22;20984;43.508;1.504;2022-09-09T17:58:44;20.50;99.90
34766;DHT22;20984;43.508;1.504;2022-09-09T18:01:12;20.30;99.90
34766;DHT22;20984;43.508;1.504;2022-09-09T18:03:39;20.20;99.90
34766;DHT22;20984;43.508;1.504;2022-09-09T18:06:07;20.20;99.90